Time;durP1;ratioP1;P1;durP2;ratioP2;P2;SDS_P1;SDS_P2;PMS_P1;PMS_P2;Temp;Humidity;BMP_temperature;BMP_pressure;BME280_temperature;BME280_humidity;BME280_pressure;Samples;Min_cycle;Max_cycle;Signal;HPM_P1;HPM_P2
2023/09/29 00:04:13;;;;;;;12.17;11.23;;;;;;;;;;2614680;54;20406;-79
2023/09/29 00:09:43;;;;;;;12.53;10.83;;;;;;;;;;2615106;54;20483;-79
2023/09/29 00:21:19;;;;;;;11.10;10.10;;;;;;;;;;2614222;54;20502;-79
2023/09/29 00:26:49;;;;;;;11.40;10.07;;;;;;;;;;2613509;54;20415;-78
2023/09/29 00:32:19;;;;;;;15.27;9.73;;;;;;;;;;2614532;54;20407;-79
2023/09/29 00:37:49;;;;;;;10.50;9.50;;;;;;;;;;2614815;39;20750;-80
2023/09/29 00:43:19;;;;;;;13.83;10.97;;;;;;;;;;2614976;54;20394;-79
2023/09/29 00:48:49;;;;;;;12.00;9.40;;;;;;;;;;2614547;54;20406;-79
2023/09/29 00:54:19;;;;;;;11.37;10.37;;;;;;;;;;2613548;39;20797;-78
2023/09/29 00:59:51;;;;;;;10.40;9.50;;;;;;;;;;2614393;54;20912;-79
2023/09/29 01:05:21;;;;;;;9.77;8.87;;;;;;;;;;2613925;54;20390;-79
2023/09/29 01:10:52;;;;;;;10.50;8.97;;;;;;;;;;2614775;54;20940;-79
2023/09/29 01:20:04;;;;;;;11.13;9.37;;;;;;;;;;2614873;54;20398;-79
2023/09/29 01:25:34;;;;;;;10.07;9.20;;;;;;;;;;2614131;54;20379;-78
2023/09/29 01:31:06;;;;;;;9.23;8.43;;;;;;;;;;2613918;54;20403;-78
2023/09/29 01:36:36;;;;;;;12.67;8.47;;;;;;;;;;2613668;54;20386;-78
2023/09/29 01:42:07;;;;;;;9.30;8.47;;;;;;;;;;2613565;54;20426;-78
2023/09/29 01:47:38;;;;;;;11.07;8.50;;;;;;;;;;2613895;54;20400;-78
2023/09/29 01:53:07;;;;;;;9.63;8.93;;;;;;;;;;2613218;46;20402;-78
2023/09/29 01:58:37;;;;;;;17.30;8.20;;;;;;;;;;2614088;54;20484;-78
2023/09/29 02:04:07;;;;;;;8.83;8.03;;;;;;;;;;2613913;54;20479;-79
2023/09/29 02:09:36;;;;;;;9.63;8.77;;;;;;;;;;2613888;54;20390;-80
2023/09/29 02:15:06;;;;;;;7.60;7.00;;;;;;;;;;2614054;54;20410;-81
2023/09/29 02:20:41;;;;;;;9.43;8.73;;;;;;;;;;2613837;54;20459;-81
2023/09/29 02:26:11;;;;;;;8.93;8.07;;;;;;;;;;2614478;54;21012;-80
2023/09/29 02:31:41;;;;;;;9.03;8.00;;;;;;;;;;2615214;54;20428;-79
2023/09/29 02:37:10;;;;;;;7.93;7.37;;;;;;;;;;2615664;54;20390;-78
2023/09/29 02:42:41;;;;;;;8.60;7.90;;;;;;;;;;2614233;54;20387;-79
2023/09/29 02:48:10;;;;;;;9.03;8.23;;;;;;;;;;2614261;54;20347;-79
2023/09/29 02:53:40;;;;;;;8.30;7.60;;;;;;;;;;2614189;54;20411;-79
2023/09/29 02:59:10;;;;;;;7.93;7.33;;;;;;;;;;2614001;54;20399;-79
2023/09/29 03:04:42;;;;;;;8.33;7.60;;;;;;;;;;2614400;54;20379;-80
2023/09/29 03:10:13;;;;;;;9.50;8.00;;;;;;;;;;2614000;54;20387;-80
2023/09/29 03:21:50;;;;;;;8.63;7.83;;;;;;;;;;2614190;54;20948;-79
2023/09/29 03:27:19;;;;;;;8.67;8.07;;;;;;;;;;2613917;54;20936;-79
2023/09/29 03:32:49;;;;;;;8.33;7.73;;;;;;;;;;2615403;54;20383;-79
2023/09/29 03:38:20;;;;;;;8.20;7.60;;;;;;;;;;2613474;54;20387;-80
2023/09/29 03:43:51;;;;;;;12.00;7.73;;;;;;;;;;2614527;54;20423;-80
2023/09/29 03:49:21;;;;;;;8.20;7.50;;;;;;;;;;2614523;54;20415;-80
2023/09/29 03:54:51;;;;;;;7.90;7.30;;;;;;;;;;2614173;54;21026;-80
2023/09/29 04:00:21;;;;;;;8.10;7.50;;;;;;;;;;2614564;54;20386;-82
2023/09/29 04:05:50;;;;;;;10.73;7.30;;;;;;;;;;2613715;39;20848;-79
2023/09/29 04:11:20;;;;;;;8.30;7.70;;;;;;;;;;2615257;54;20383;-79
2023/09/29 04:20:33;;;;;;;7.83;7.23;;;;;;;;;;2613841;54;20406;-79
2023/09/29 04:26:03;;;;;;;8.40;7.60;;;;;;;;;;2614851;54;20382;-79
2023/09/29 04:31:33;;;;;;;8.10;7.40;;;;;;;;;;2613606;54;20394;-79
2023/09/29 04:37:02;;;;;;;5.90;5.13;;;;;;;;;;2612402;54;20351;-77
2023/09/29 04:42:34;;;;;;;6.23;5.63;;;;;;;;;;2614217;54;20382;-78
2023/09/29 04:48:03;;;;;;;9.40;7.60;;;;;;;;;;2614090;54;20375;-77
2023/09/29 04:53:33;;;;;;;8.27;7.20;;;;;;;;;;2612251;54;20386;-77
2023/09/29 04:59:03;;;;;;;7.30;6.70;;;;;;;;;;2610902;54;20387;-76
2023/09/29 05:04:33;;;;;;;8.63;7.50;;;;;;;;;;2613775;54;20403;-76
2023/09/29 05:10:03;;;;;;;6.80;6.20;;;;;;;;;;2611657;54;20410;-78
2023/09/29 05:15:36;;;;;;;11.03;6.63;;;;;;;;;;2612783;39;20790;-78
2023/09/29 05:21:05;;;;;;;7.27;6.63;;;;;;;;;;2614376;54;20390;-78
2023/09/29 05:26:35;;;;;;;10.00;6.90;;;;;;;;;;2612201;54;20878;-78
2023/09/29 05:32:05;;;;;;;11.53;7.77;;;;;;;;;;2609523;54;20390;-76
2023/09/29 05:37:34;;;;;;;7.47;6.77;;;;;;;;;;2611401;47;20985;-78
2023/09/29 05:43:09;;;;;;;6.80;6.20;;;;;;;;;;2610377;54;20444;-78
2023/09/29 05:48:39;;;;;;;8.30;7.00;;;;;;;;;;2613196;54;20901;-77
2023/09/29 05:54:08;;;;;;;8.83;6.27;;;;;;;;;;2613047;54;20426;-77
2023/09/29 05:59:38;;;;;;;7.60;6.00;;;;;;;;;;2612454;54;20411;-77
2023/09/29 06:05:08;;;;;;;5.43;4.93;;;;;;;;;;2614994;54;20469;-76
2023/09/29 06:10:38;;;;;;;5.80;5.20;;;;;;;;;;2614663;54;20386;-77
2023/09/29 06:21:56;;;;;;;5.97;5.47;;;;;;;;;;2612011;54;20391;-77
2023/09/29 06:27:27;;;;;;;7.50;4.93;;;;;;;;;;2613348;39;20790;-77
2023/09/29 06:32:57;;;;;;;5.50;5.00;;;;;;;;;;2613804;54;20439;-77
2023/09/29 06:38:28;;;;;;;6.37;5.77;;;;;;;;;;2614740;54;20422;-77
2023/09/29 06:43:58;;;;;;;6.90;5.90;;;;;;;;;;2614116;54;20435;-76
2023/09/29 06:49:27;;;;;;;6.93;6.33;;;;;;;;;;2607186;54;20394;-77
2023/09/29 06:54:57;;;;;;;7.20;6.70;;;;;;;;;;2612788;39;20770;-77
2023/09/29 07:00:27;;;;;;;8.57;5.97;;;;;;;;;;2611723;54;20419;-77
2023/09/29 07:05:59;;;;;;;6.50;5.90;;;;;;;;;;2613148;31;20931;-76
2023/09/29 07:11:28;;;;;;;8.30;7.70;;;;;;;;;;2613443;54;20390;-76
2023/09/29 07:20:36;;;;;;;6.83;6.33;;;;;;;;;;2612097;54;20427;-76
2023/09/29 07:26:06;;;;;;;7.20;6.70;;;;;;;;;;2613284;54;20464;-77
2023/09/29 07:31:36;;;;;;;7.93;7.07;;;;;;;;;;2614469;54;20965;-76
2023/09/29 07:37:06;;;;;;;11.37;7.30;;;;;;;;;;2614646;39;20913;-78
2023/09/29 07:42:35;;;;;;;8.20;7.60;;;;;;;;;;2613412;54;20382;-76
2023/09/29 07:48:05;;;;;;;9.33;8.40;;;;;;;;;;2614008;39;20783;-76
2023/09/29 07:53:35;;;;;;;8.70;8.20;;;;;;;;;;2614428;54;20391;-76
2023/09/29 07:59:04;;;;;;;9.23;8.53;;;;;;;;;;2613954;54;20395;-77
2023/09/29 08:04:34;;;;;;;9.47;8.73;;;;;;;;;;2614774;54;20387;-77
2023/09/29 08:10:04;;;;;;;9.40;8.70;;;;;;;;;;2612877;54;20423;-77
2023/09/29 08:15:34;;;;;;;14.23;9.37;;;;;;;;;;2613330;39;20821;-77
2023/09/29 08:21:03;;;;;;;10.13;9.43;;;;;;;;;;2614619;39;20840;-76
2023/09/29 08:26:34;;;;;;;10.70;9.93;;;;;;;;;;2613766;54;21026;-77
2023/09/29 08:32:04;;;;;;;12.07;11.27;;;;;;;;;;2613844;54;20926;-77
2023/09/29 08:37:33;;;;;;;11.63;10.83;;;;;;;;;;2614924;54;20411;-77
2023/09/29 08:43:06;;;;;;;10.70;10.10;;;;;;;;;;2613178;54;20514;-78
2023/09/29 08:48:36;;;;;;;10.80;10.10;;;;;;;;;;2611987;54;20399;-78
2023/09/29 08:54:07;;;;;;;11.17;10.50;;;;;;;;;;2613121;54;20453;-77
2023/09/29 08:59:38;;;;;;;12.23;10.63;;;;;;;;;;2613569;54;20383;-78
2023/09/29 09:05:10;;;;;;;11.43;10.73;;;;;;;;;;2611727;39;21308;-77
2023/09/29 09:10:40;;;;;;;10.63;10.03;;;;;;;;;;2611601;54;20398;-77
2023/09/29 09:16:10;;;;;;;10.80;10.10;;;;;;;;;;2608836;54;21088;-76
2023/09/29 09:27:52;;;;;;;11.10;10.37;;;;;;;;;;2613352;54;20427;-77
2023/09/29 09:33:22;;;;;;;11.50;10.80;;;;;;;;;;2611569;54;21020;-76
2023/09/29 09:38:52;;;;;;;10.73;10.13;;;;;;;;;;2611665;54;20399;-75
2023/09/29 09:44:22;;;;;;;11.40;10.70;;;;;;;;;;2610303;54;20374;-77
2023/09/29 09:49:56;;;;;;;12.43;11.50;;;;;;;;;;2612151;54;20430;-77
2023/09/29 09:55:33;;;;;;;11.67;10.90;;;;;;;;;;2610666;54;20407;-75
2023/09/29 10:01:03;;;;;;;11.17;10.37;;;;;;;;;;2610772;54;20401;-76
2023/09/29 10:06:33;;;;;;;10.60;9.80;;;;;;;;;;2610646;54;20410;-77
2023/09/29 10:12:03;;;;;;;10.50;9.60;;;;;;;;;;2613226;54;20406;-77
2023/09/29 10:17:39;;;;;;;10.33;9.57;;;;;;;;;;2613327;54;20407;-78
2023/09/29 10:23:13;;;;;;;10.07;9.33;;;;;;;;;;2614428;39;20902;-77
2023/09/29 10:28:45;;;;;;;10.07;9.37;;;;;;;;;;2614052;54;20415;-77
2023/09/29 10:34:21;;;;;;;9.67;8.70;;;;;;;;;;2614459;54;20430;-79
2023/09/29 10:39:50;;;;;;;10.17;9.40;;;;;;;;;;2612804;54;20391;-79
2023/09/29 10:45:36;;;;;;;8.00;7.60;;;;;;;;;;2614409;54;21029;-77
2023/09/29 10:51:07;;;;;;;10.13;9.43;;;;;;;;;;2614752;54;20433;-78
2023/09/29 10:56:37;;;;;;;10.30;9.70;;;;;;;;;;2613560;54;20938;-76
2023/09/29 11:02:07;;;;;;;11.10;10.20;;;;;;;;;;2612901;54;20408;-77
2023/09/29 11:07:45;;;;;;;11.70;10.90;;;;;;;;;;2613009;54;20390;-77
2023/09/29 11:13:19;;;;;;;12.00;11.30;;;;;;;;;;2612728;54;20492;-76
2023/09/29 11:18:49;;;;;;;11.90;10.97;;;;;;;;;;2611834;54;20370;-78
2023/09/29 11:24:19;;;;;;;11.13;10.40;;;;;;;;;;2614175;54;20395;-78
2023/09/29 11:29:49;;;;;;;12.97;11.57;;;;;;;;;;2613116;54;20391;-79
2023/09/29 11:35:19;;;;;;;12.77;11.57;;;;;;;;;;2612014;54;20354;-77
2023/09/29 11:40:49;;;;;;;13.47;12.40;;;;;;;;;;2614250;54;20433;-79
2023/09/29 11:46:20;;;;;;;12.83;11.93;;;;;;;;;;2614188;54;20673;-80
2023/09/29 11:51:54;;;;;;;13.70;12.80;;;;;;;;;;2612358;54;20407;-79
2023/09/29 11:57:23;;;;;;;14.37;13.23;;;;;;;;;;2615342;54;20359;-78
2023/09/29 12:02:54;;;;;;;12.90;11.93;;;;;;;;;;2614345;54;20431;-77
2023/09/29 12:08:24;;;;;;;11.00;10.00;;;;;;;;;;2614682;54;20379;-78
2023/09/29 12:13:54;;;;;;;13.00;11.60;;;;;;;;;;2613707;54;20431;-78
2023/09/29 12:16:39;;;;;;;11.53;10.80;;;;;;;;;;2613444;54;21016;-78
2023/09/29 12:19:05;;;;;;;13.13;12.10;;;;;;;;;;2614063;54;20439;-78
2023/09/29 12:34:04;;;;;;;13.57;12.33;;;;;;;;;;2613100;54;20394;-79
2023/09/29 12:39:33;;;;;;;14.87;11.70;;;;;;;;;;2610043;54;20424;-78
2023/09/29 12:45:03;;;;;;;13.93;12.70;;;;;;;;;;2610458;54;21044;-78
2023/09/29 12:50:38;;;;;;;13.40;12.40;;;;;;;;;;2609419;54;20391;-78
2023/09/29 12:56:09;;;;;;;13.00;11.90;;;;;;;;;;2609616;54;21101;-79
2023/09/29 13:01:39;;;;;;;12.20;11.00;;;;;;;;;;2609416;54;20517;-79
2023/09/29 13:07:09;;;;;;;11.67;10.73;;;;;;;;;;2611161;54;20423;-78
2023/09/29 13:12:38;;;;;;;12.20;11.00;;;;;;;;;;2611192;54;20387;-78
2023/09/29 13:18:08;;;;;;;15.93;11.17;;;;;;;;;;2611090;54;20405;-77
2023/09/29 13:23:38;;;;;;;11.10;10.23;;;;;;;;;;2612215;54;20439;-76
2023/09/29 13:29:08;;;;;;;11.13;10.33;;;;;;;;;;2611849;54;20466;-76
2023/09/29 13:34:38;;;;;;;10.70;9.90;;;;;;;;;;2611834;54;20979;-76
2023/09/29 13:40:08;;;;;;;10.80;9.70;;;;;;;;;;2611853;39;20753;-75
2023/09/29 13:45:37;;;;;;;7.70;6.80;;;;;;;;;;2614563;54;20403;-75
2023/09/29 13:51:07;;;;;;;11.03;7.50;;;;;;;;;;2614813;54;20391;-76
2023/09/29 13:56:37;;;;;;;9.20;7.60;;;;;;;;;;2613702;54;20390;-75
2023/09/29 14:02:07;;;;;;;8.53;7.67;;;;;;;;;;2614656;54;20398;-77
2023/09/29 14:07:37;;;;;;;7.10;6.50;;;;;;;;;;2614133;54;20415;-75
2023/09/29 14:13:07;;;;;;;6.37;5.70;;;;;;;;;;2613269;39;20782;-76
2023/09/29 14:18:37;;;;;;;6.23;5.73;;;;;;;;;;2614119;54;20387;-76
2023/09/29 14:24:07;;;;;;;5.57;5.17;;;;;;;;;;2614732;54;20419;-76
2023/09/29 14:29:37;;;;;;;5.50;5.00;;;;;;;;;;2614990;54;20437;-75
2023/09/29 14:35:11;;;;;;;8.00;3.63;;;;;;;;;;2615489;54;20966;-78
2023/09/29 14:40:40;;;;;;;4.40;3.03;;;;;;;;;;2615012;54;20412;-80
2023/09/29 14:46:13;;;;;;;6.33;3.00;;;;;;;;;;2615585;54;20941;-78
2023/09/29 14:51:43;;;;;;;7.83;3.80;;;;;;;;;;2615469;54;20400;-79
2023/09/29 14:57:14;;;;;;;4.73;2.87;;;;;;;;;;2615858;54;20387;-80
2023/09/29 15:02:44;;;;;;;5.13;3.23;;;;;;;;;;2614357;39;20733;-80
2023/09/29 15:08:15;;;;;;;4.00;3.03;;;;;;;;;;2614474;54;20411;-80
2023/09/29 15:13:48;;;;;;;4.63;3.00;;;;;;;;;;2616534;31;20969;-80
2023/09/29 15:19:18;;;;;;;5.27;3.67;;;;;;;;;;2613402;54;20386;-80
2023/09/29 15:24:47;;;;;;;5.53;3.53;;;;;;;;;;2614257;54;20515;-80
2023/09/29 15:33:49;;;;;;;5.47;4.10;;;;;;;;;;2613587;54;20427;-77
2023/09/29 15:39:19;;;;;;;6.40;4.43;;;;;;;;;;2613739;54;21006;-77
2023/09/29 15:44:48;;;;;;;5.20;4.40;;;;;;;;;;2615850;54;20406;-78
2023/09/29 15:50:18;;;;;;;7.70;5.10;;;;;;;;;;2616115;54;20391;-77
2023/09/29 15:55:48;;;;;;;4.27;3.17;;;;;;;;;;2615623;54;21270;-77
2023/09/29 16:01:17;;;;;;;6.00;3.47;;;;;;;;;;2612896;54;20538;-76
2023/09/29 16:06:47;;;;;;;3.87;3.17;;;;;;;;;;2613222;54;20383;-77
2023/09/29 16:12:17;;;;;;;4.70;3.13;;;;;;;;;;2613914;54;20390;-78
2023/09/29 16:17:46;;;;;;;4.47;2.80;;;;;;;;;;2615951;39;20867;-77
2023/09/29 16:23:16;;;;;;;4.70;2.40;;;;;;;;;;2612680;54;20422;-77
2023/09/29 16:26:03;;;;;;;4.80;3.37;;;;;;;;;;2611938;54;20518;-77
2023/09/29 16:28:29;;;;;;;7.93;3.10;;;;;;;;;;2612132;39;20851;-77
2023/09/29 16:37:37;;;;;;;6.83;2.90;;;;;;;;;;2612484;54;20423;-77
2023/09/29 16:43:08;;;;;;;5.27;3.27;;;;;;;;;;2611953;54;20379;-75
2023/09/29 16:48:37;;;;;;;6.97;4.47;;;;;;;;;;2611886;54;20391;-76
2023/09/29 16:54:07;;;;;;;7.27;4.80;;;;;;;;;;2611923;54;20909;-77
2023/09/29 16:59:36;;;;;;;8.23;4.03;;;;;;;;;;2612373;31;20852;-77
2023/09/29 17:05:07;;;;;;;4.80;3.20;;;;;;;;;;2610926;54;20407;-78
2023/09/29 17:10:37;;;;;;;5.53;3.57;;;;;;;;;;2611638;54;20371;-78
2023/09/29 17:16:07;;;;;;;9.10;3.80;;;;;;;;;;2612447;54;20395;-77
2023/09/29 17:21:36;;;;;;;17.20;13.30;;;;;;;;;;2612256;54;20416;-77
2023/09/29 17:27:06;;;;;;;9.00;4.37;;;;;;;;;;2612947;39;20738;-76
2023/09/29 17:32:36;;;;;;;9.13;7.97;;;;;;;;;;2613434;39;21046;-77
2023/09/29 17:38:06;;;;;;;6.10;4.20;;;;;;;;;;2612926;54;20387;-77
2023/09/29 17:43:37;;;;;;;7.50;4.43;;;;;;;;;;2613797;39;22562;-76
2023/09/29 17:49:07;;;;;;;7.77;3.97;;;;;;;;;;2611881;54;21018;-79
2023/09/29 17:54:36;;;;;;;10.27;6.20;;;;;;;;;;2612964;54;20973;-79
2023/09/29 18:00:06;;;;;;;13.90;9.97;;;;;;;;;;2615760;54;20394;-79
2023/09/29 18:05:36;;;;;;;13.80;9.60;;;;;;;;;;2615851;54;20382;-78
2023/09/29 18:11:06;;;;;;;12.93;6.60;;;;;;;;;;2613236;39;20858;-81
2023/09/29 18:16:36;;;;;;;7.70;5.50;;;;;;;;;;2613839;54;20945;-79
2023/09/29 18:22:06;;;;;;;11.93;5.87;;;;;;;;;;2613190;54;20938;-79
2023/09/29 18:27:36;;;;;;;12.50;6.73;;;;;;;;;;2613024;54;20973;-79
2023/09/29 18:33:06;;;;;;;6.73;5.43;;;;;;;;;;2612842;54;20394;-79
2023/09/29 18:38:35;;;;;;;10.83;4.40;;;;;;;;;;2611759;54;20403;-78
2023/09/29 18:44:05;;;;;;;7.63;4.23;;;;;;;;;;2612987;54;20358;-79
2023/09/29 18:49:34;;;;;;;11.40;6.50;;;;;;;;;;2612545;54;20371;-79
2023/09/29 18:55:04;;;;;;;6.20;4.03;;;;;;;;;;2612170;54;21040;-78
2023/09/29 19:00:36;;;;;;;8.03;4.60;;;;;;;;;;2612500;54;20386;-79
2023/09/29 19:06:06;;;;;;;8.37;4.20;;;;;;;;;;2612427;54;20415;-80
2023/09/29 19:11:36;;;;;;;15.23;5.23;;;;;;;;;;2612135;54;20408;-78
2023/09/29 19:17:07;;;;;;;7.50;3.90;;;;;;;;;;2612358;54;20435;-79
2023/09/29 19:22:37;;;;;;;9.33;3.90;;;;;;;;;;2613462;54;20411;-78
2023/09/29 19:28:08;;;;;;;10.10;3.53;;;;;;;;;;2612231;54;20418;-78
2023/09/29 19:39:45;;;;;;;10.20;5.70;;;;;;;;;;2613130;54;20382;-79
2023/09/29 19:45:15;;;;;;;11.80;8.43;;;;;;;;;;2612369;39;20784;-78
2023/09/29 19:50:45;;;;;;;15.20;8.40;;;;;;;;;;2612831;54;20494;-78
2023/09/29 19:56:19;;;;;;;13.93;8.27;;;;;;;;;;2612634;54;20383;-79
2023/09/29 20:01:49;;;;;;;16.33;9.10;;;;;;;;;;2611828;46;20384;-77
2023/09/29 20:07:19;;;;;;;18.23;9.67;;;;;;;;;;2612291;54;20458;-79
2023/09/29 20:12:49;;;;;;;23.83;11.73;;;;;;;;;;2613016;39;20732;-77
2023/09/29 20:18:22;;;;;;;21.63;9.40;;;;;;;;;;2612397;54;20443;-79
2023/09/29 20:23:52;;;;;;;12.07;7.50;;;;;;;;;;2611024;54;20411;-78
2023/09/29 20:29:21;;;;;;;14.30;7.80;;;;;;;;;;2613149;54;20403;-79
2023/09/29 20:38:26;;;;;;;13.77;7.70;;;;;;;;;;2615361;54;20510;-79
2023/09/29 20:43:56;;;;;;;13.73;7.07;;;;;;;;;;2614243;54;20428;-79
2023/09/29 20:49:25;;;;;;;23.17;6.57;;;;;;;;;;2614433;54;20487;-78
2023/09/29 20:54:55;;;;;;;17.93;8.40;;;;;;;;;;2613628;54;21496;-77
2023/09/29 21:00:25;;;;;;;12.77;5.40;;;;;;;;;;2614308;54;20426;-79
2023/09/29 21:05:55;;;;;;;16.73;6.67;;;;;;;;;;2613706;54;20925;-79
2023/09/29 21:11:26;;;;;;;10.17;6.00;;;;;;;;;;2614205;54;20451;-79
2023/09/29 21:16:56;;;;;;;11.90;5.83;;;;;;;;;;2614088;54;20587;-78
2023/09/29 21:22:25;;;;;;;14.63;6.17;;;;;;;;;;2612452;54;20378;-79
2023/09/29 21:27:55;;;;;;;11.33;5.60;;;;;;;;;;2613304;54;20440;-79
2023/09/29 21:33:25;;;;;;;21.60;6.27;;;;;;;;;;2615979;54;20395;-80
2023/09/29 21:38:55;;;;;;;11.73;5.40;;;;;;;;;;2616935;39;20494;-80
2023/09/29 21:44:25;;;;;;;13.87;6.10;;;;;;;;;;2614391;54;20435;-80
2023/09/29 21:49:55;;;;;;;18.07;6.33;;;;;;;;;;2617457;54;20382;-80
2023/09/29 21:55:25;;;;;;;24.80;8.07;;;;;;;;;;2617180;31;20824;-80
2023/09/29 22:00:55;;;;;;;11.93;5.70;;;;;;;;;;2616410;54;20374;-81
2023/09/29 22:06:24;;;;;;;27.17;7.10;;;;;;;;;;2616432;54;20382;-80
2023/09/29 22:11:54;;;;;;;38.00;8.43;;;;;;;;;;2616206;54;21022;-81
2023/09/29 22:17:23;;;;;;;14.50;6.53;;;;;;;;;;2615394;54;20391;-80
2023/09/29 22:22:53;;;;;;;10.50;6.17;;;;;;;;;;2616348;54;20419;-80
2023/09/29 22:28:23;;;;;;;20.30;7.33;;;;;;;;;;2615567;54;20379;-81
2023/09/29 22:33:53;;;;;;;12.00;5.60;;;;;;;;;;2615426;54;20561;-80
2023/09/29 22:39:22;;;;;;;18.87;6.87;;;;;;;;;;2616134;54;20486;-80
2023/09/29 22:44:53;;;;;;;15.30;6.00;;;;;;;;;;2614103;39;20861;-79
2023/09/29 22:50:22;;;;;;;25.20;7.17;;;;;;;;;;2615277;54;20402;-80
2023/09/29 22:55:56;;;;;;;9.83;6.37;;;;;;;;;;2613818;54;20419;-80
2023/09/29 23:01:26;;;;;;;17.57;6.90;;;;;;;;;;2614392;39;20819;-80
2023/09/29 23:06:57;;;;;;;29.33;7.03;;;;;;;;;;2615369;54;20938;-80
2023/09/29 23:12:27;;;;;;;20.00;7.77;;;;;;;;;;2614752;54;20403;-81
2023/09/29 23:17:57;;;;;;;16.13;6.97;;;;;;;;;;2614827;54;20390;-81
2023/09/29 23:23:26;;;;;;;28.87;7.47;;;;;;;;;;2615501;54;20402;-80
2023/09/29 23:28:56;;;;;;;17.90;6.80;;;;;;;;;;2614834;54;20974;-81
2023/09/29 23:40:33;;;;;;;25.67;9.70;;;;;;;;;;2613973;54;20937;-81
2023/09/29 23:46:06;;;;;;;24.87;10.50;;;;;;;;;;2615341;54;20383;-81
2023/09/29 23:51:36;;;;;;;27.80;9.53;;;;;;;;;;2615099;54;20411;-81
2023/09/29 23:57:06;;;;;;;19.00;8.17;;;;;;;;;;2613273;54;20430;-80
